This is the latest recevied weather packets stored in our database for station/object W4EDL-13. If no packets are shown the sender has not sent any weather packets the latest 1 day(s).
| Time | Temp. | Humidity | Pressure | Rain* | Wind** | Luminosity | Snow |
|---|---|---|---|---|---|---|---|
| 1778059204 | 17.22° C | 99% | 1006.3 hPa | - | - | - | - |
| 1778056802 | 17.22° C | 98% | 1006.3 hPa | - | - | - | - |
| 1778055000 | 17.78° C | 97% | 1006.3 hPa | - | - | - | - |
| 1778053799 | 17.78° C | 97% | 1005.9 hPa | - | - | - | - |
| 1778053198 | 17.78° C | 97% | 1006.3 hPa | - | - | - | - |
| 1778052598 | 17.78° C | 97% | 1005.9 hPa | - | - | - | - |
| 1778050796 | 18.33° C | 96% | 1006.6 hPa | - | - | - | - |
| 1778049595 | 18.89° C | 93% | 1006.6 hPa | - | - | - | - |
| 1778048394 | 19.44° C | 89% | 1007.3 hPa | - | - | - | - |
| 1778047193 | 20.56° C | 86% | 1007.3 hPa | - | - | - | - |
| 1778045992 | 21.67° C | 81% | 1007.3 hPa | - | - | - | - |
| 1778045391 | 21.67° C | 80% | 1007.3 hPa | - | - | - | - |
| 1778044190 | 22.22° C | 78% | 1007.3 hPa | - | - | - | - |
| 1778042989 | 22.22° C | 78% | 1007.6 hPa | - | - | - | - |
| 1778042388 | 21.67° C | 78% | 1007.6 hPa | - | - | - | - |
| 1778041788 | 22.22° C | 76% | 1007.6 hPa | - | - | - | - |
| 1778041188 | 22.22° C | 77% | 1007.6 hPa | - | - | - | - |
| 1778041187 | 22.22° C | 77% | 1007.6 hPa | - | - | - | - |
| 1778040587 | 22.22° C | 78% | 1007.3 hPa | - | - | - | - |
| 1778039986 | 22.22° C | 78% | 1007.6 hPa | - | - | - | - |
| 1778039385 | 22.22° C | 78% | 1007.6 hPa | - | - | - | - |
| 1778038786 | 22.22° C | 78% | 1007.3 hPa | - | - | - | - |
| 1778038185 | 21.67° C | 79% | 1007.3 hPa | - | - | - | - |
| 1778038184 | 21.67° C | 79% | 1007.3 hPa | - | - | - | - |
| 1778037583 | 21.67° C | 78% | 1007.3 hPa | - | - | - | - |
* Rain since midnight (hover to see other rain measurements)
** Current wind speed in m/s (hover to see current wind gust speed)